Depoe Bay, Oregon
Current Conditions -  °F | °C
As of 6:15 AM on Thursday 27 Nov 2014 (Local Time) from KONP Reporting Station
Light Rain Light Rain  
Wind Chill: 55°   Ceiling: 1700
Heat Index: 55°   Visibility: 3mi
Dew Point: 54°   Wind: 22mph
Humidity: 94%   Direction: 200°SSW
Pressure: 30.02"   Gusts: 38mph
Location:  44.81°N, 124.06°W
Report Text: KONP 271415Z AUTO 20019G33KT 3SM -RA SCT010 OVC017 13/12 A3002 RMK AO2 P0001
Loading
Personal Weather Stations






























Interactive Weather Map New forecast layout! Learn more

10-Day Weather Forecast

Advertisements
Track Severe Weather on mobile